Time;durP1;ratioP1;P1;durP2;ratioP2;P2;SDS_P1;SDS_P2;PMS_P1;PMS_P2;Temp;Humidity;BMP_temperature;BMP_pressure;BME280_temperature;BME280_humidity;BME280_pressure;Samples;Min_cycle;Max_cycle;Signal;HPM_P1;HPM_P2
2023/12/11 00:00:43;;;;;;;1999.90;999.90;;;7.90;99.90;;;;;;5069621;28;20064;-77
2023/12/11 00:03:09;;;;;;;1999.90;999.90;;;8.00;99.90;;;;;;5064490;28;20036;-77
2023/12/11 00:05:38;;;;;;;1999.90;999.90;;;8.00;99.90;;;;;;5067274;28;20513;-80
2023/12/11 00:08:04;;;;;;;1999.90;999.90;;;7.90;99.90;;;;;;5068801;28;20028;-82
2023/12/11 00:10:29;;;;;;;1999.90;999.90;;;7.90;99.90;;;;;;5066385;28;20512;-78
2023/12/11 00:12:55;;;;;;;1999.90;999.90;;;7.90;99.90;;;;;;5067998;28;20028;-78
2023/12/11 00:15:21;;;;;;;1999.90;999.90;;;8.00;99.90;;;;;;5054146;28;20033;-80
2023/12/11 00:17:47;;;;;;;1999.90;999.90;;;8.00;99.90;;;;;;5069883;28;20601;-79
2023/12/11 00:20:13;;;;;;;1999.90;999.90;;;8.00;99.90;;;;;;5068382;28;20112;-81
2023/12/11 00:22:39;;;;;;;1999.90;999.90;;;8.10;99.90;;;;;;5068261;28;20036;-82
2023/12/11 00:25:05;;;;;;;1999.90;999.90;;;8.10;99.90;;;;;;5067979;28;20036;-79
2023/12/11 00:27:32;;;;;;;1999.90;999.90;;;8.10;99.90;;;;;;5071382;28;20111;-80
2023/12/11 00:29:58;;;;;;;1999.90;999.90;;;8.00;99.90;;;;;;5052383;28;20467;-79
2023/12/11 00:32:24;;;;;;;1999.90;999.90;;;8.00;99.90;;;;;;5065540;28;20029;-80
2023/12/11 00:34:51;;;;;;;1999.90;999.90;;;8.00;99.90;;;;;;5070358;28;20036;-80
2023/12/11 00:37:17;;;;;;;1999.90;999.90;;;8.00;99.90;;;;;;5065552;28;20028;-77
2023/12/11 00:39:43;;;;;;;1999.90;999.90;;;8.00;99.90;;;;;;5067338;28;20414;-78
2023/12/11 00:42:08;;;;;;;1999.90;999.90;;;8.10;99.90;;;;;;5071479;28;20041;-79
2023/12/11 00:44:37;;;;;;;1999.90;999.90;;;8.00;99.90;;;;;;5067555;28;20036;-78
2023/12/11 00:47:04;;;;;;;1999.90;999.90;;;8.00;99.90;;;;;;5069507;28;20107;-81
2023/12/11 00:49:30;;;;;;;1999.90;999.90;;;7.90;99.90;;;;;;5069105;28;20444;-77
2023/12/11 00:51:56;;;;;;;1999.90;999.90;;;7.90;99.90;;;;;;5101242;28;20035;-79
2023/12/11 00:54:22;;;;;;;1999.90;999.90;;;7.80;99.90;;;;;;5066946;28;20371;-78
2023/12/11 00:56:48;;;;;;;1999.90;999.90;;;7.70;99.90;;;;;;5050555;28;20051;-78
2023/12/11 00:59:13;;;;;;;1999.90;999.90;;;7.50;99.90;;;;;;5051370;28;20029;-81
2023/12/11 01:01:39;;;;;;;1999.90;999.90;;;7.50;99.90;;;;;;5070603;28;20021;-78
2023/12/11 01:04:06;;;;;;;1999.90;999.90;;;7.50;99.90;;;;;;5069907;28;20628;-78
2023/12/11 01:06:31;;;;;;;1999.90;999.90;;;7.40;99.90;;;;;;5066056;28;20013;-82
2023/12/11 01:08:57;;;;;;;1999.90;999.90;;;7.30;99.90;;;;;;5069341;28;20112;-77
2023/12/11 01:11:23;;;;;;;1999.90;999.90;;;7.10;99.90;;;;;;5072531;28;20564;-79
2023/12/11 01:13:48;;;;;;;1999.90;999.90;;;7.00;99.90;;;;;;5102457;27;20090;-79
2023/12/11 01:16:14;;;;;;;1999.90;999.90;;;6.90;99.90;;;;;;5072727;28;20074;-79
2023/12/11 01:18:40;;;;;;;1999.90;999.90;;;7.00;99.90;;;;;;5067583;28;20021;-78
2023/12/11 01:21:06;;;;;;;1999.90;999.90;;;7.00;99.90;;;;;;5066702;28;20508;-79
2023/12/11 01:23:31;;;;;;;1999.90;999.90;;;7.10;99.90;;;;;;5066453;28;20052;-80
2023/12/11 01:25:57;;;;;;;1999.90;999.90;;;7.10;99.90;;;;;;5102215;27;20048;-78
2023/12/11 01:28:23;;;;;;;1999.90;999.90;;;7.00;99.90;;;;;;5070122;28;20036;-79
2023/12/11 01:30:48;;;;;;;1999.90;999.90;;;6.90;99.90;;;;;;5069312;28;20028;-80
2023/12/11 01:33:14;;;;;;;1999.90;999.90;;;6.90;99.90;;;;;;5066637;28;20028;-78
2023/12/11 01:35:40;;;;;;;1999.90;999.90;;;6.80;99.90;;;;;;5071656;28;20078;-80
2023/12/11 01:38:05;;;;;;;1999.90;999.90;;;6.80;99.90;;;;;;5069398;28;20043;-78
2023/12/11 01:40:31;;;;;;;1999.90;999.90;;;6.80;99.90;;;;;;5067976;28;20024;-78
2023/12/11 01:43:17;;;;;;;1999.90;999.90;;;6.90;99.90;;;;;;5070979;28;20498;-78
2023/12/11 01:45:43;;;;;;;1999.90;999.90;;;6.90;99.90;;;;;;5068091;28;20423;-81
2023/12/11 01:48:09;;;;;;;1999.90;999.90;;;7.00;99.90;;;;;;5067131;28;20081;-81
2023/12/11 01:50:36;;;;;;;1999.90;999.90;;;6.90;99.90;;;;;;5069760;28;20020;-79
2023/12/11 01:53:03;;;;;;;1999.90;999.90;;;7.00;99.90;;;;;;5068154;28;20121;-79
2023/12/11 01:55:31;;;;;;;1999.90;999.90;;;7.00;99.90;;;;;;5071777;28;20764;-79
2023/12/11 01:57:57;;;;;;;1999.90;999.90;;;7.00;99.90;;;;;;5070617;28;20475;-80
2023/12/11 02:00:24;;;;;;;1999.90;999.90;;;7.00;99.90;;;;;;5070846;28;20538;-78
2023/12/11 02:02:50;;;;;;;1999.90;999.90;;;7.00;99.90;;;;;;5069708;28;20033;-81
2023/12/11 02:05:17;;;;;;;1999.90;999.90;;;7.00;99.90;;;;;;5070607;28;20043;-78
2023/12/11 02:07:43;;;;;;;1999.90;999.90;;;7.00;99.90;;;;;;5068264;28;20043;-79
2023/12/11 02:10:09;;;;;;;1999.90;999.90;;;7.10;99.90;;;;;;5068362;28;20410;-79
2023/12/11 02:12:35;;;;;;;1999.90;999.90;;;7.20;99.90;;;;;;5070175;28;20150;-78
2023/12/11 02:15:01;;;;;;;1999.90;999.90;;;7.20;99.90;;;;;;5067263;28;20107;-79
2023/12/11 02:17:26;;;;;;;1999.90;999.90;;;7.30;99.90;;;;;;5067070;28;20463;-81
2023/12/11 02:19:53;;;;;;;1999.90;999.90;;;7.40;99.90;;;;;;5068524;28;20086;-78
2023/12/11 02:22:19;;;;;;;1999.90;999.90;;;7.50;99.90;;;;;;5051293;28;20420;-77
2023/12/11 02:24:49;;;;;;;1999.90;999.90;;;7.90;99.90;;;;;;5064976;28;20031;-78
2023/12/11 02:27:15;;;;;;;1999.90;999.90;;;8.10;99.90;;;;;;5070581;28;20054;-83
2023/12/11 02:29:41;;;;;;;1999.90;999.90;;;8.60;99.90;;;;;;5068367;28;20097;-78
2023/12/11 02:32:07;;;;;;;1999.90;999.90;;;8.70;99.90;;;;;;5101822;27;20036;-77
2023/12/11 02:34:36;;;;;;;1999.90;999.90;;;8.70;99.90;;;;;;5068582;28;20557;-79
2023/12/11 02:37:02;;;;;;;1999.90;999.90;;;8.70;99.90;;;;;;5069902;28;20025;-80
2023/12/11 02:39:27;;;;;;;1999.90;999.90;;;8.80;99.90;;;;;;5051298;28;20089;-77
2023/12/11 02:41:53;;;;;;;1999.90;999.90;;;8.70;99.90;;;;;;5071363;28;20049;-80
2023/12/11 02:44:19;;;;;;;1999.90;999.90;;;8.80;99.90;;;;;;5071034;28;20040;-79
2023/12/11 02:46:44;;;;;;;1999.90;999.90;;;8.80;99.90;;;;;;5068415;28;20037;-79
2023/12/11 02:49:10;;;;;;;1999.90;999.90;;;8.80;99.90;;;;;;5054733;28;20734;-80
2023/12/11 02:51:36;;;;;;;1999.90;999.90;;;8.90;99.90;;;;;;5069834;28;20032;-79
2023/12/11 02:54:01;;;;;;;1999.90;999.90;;;8.90;99.90;;;;;;5069120;28;20083;-78
2023/12/11 02:56:27;;;;;;;1999.90;999.90;;;8.90;99.90;;;;;;5068305;28;20055;-81
2023/12/11 02:58:53;;;;;;;1999.90;999.90;;;9.00;99.90;;;;;;5051642;28;20144;-78
2023/12/11 03:01:19;;;;;;;1999.90;999.90;;;8.90;99.90;;;;;;5066415;28;20021;-80
2023/12/11 03:03:44;;;;;;;1999.90;999.90;;;9.10;99.90;;;;;;5066286;28;20024;-78
2023/12/11 03:06:18;;;;;;;1999.90;999.90;;;9.10;99.90;;;;;;5052447;28;20055;-80
2023/12/11 03:08:44;;;;;;;1999.90;999.90;;;9.00;99.90;;;;;;5067889;28;20371;-78
2023/12/11 03:11:10;;;;;;;1999.90;999.90;;;9.10;99.90;;;;;;5069457;28;20047;-79
2023/12/11 03:13:35;;;;;;;1999.90;999.90;;;9.10;99.90;;;;;;5065443;28;20044;-80
2023/12/11 03:16:02;;;;;;;1999.90;999.90;;;9.10;99.90;;;;;;5068277;28;20032;-78
2023/12/11 03:18:27;;;;;;;1999.90;999.90;;;9.10;99.90;;;;;;5066700;28;20024;-78
2023/12/11 03:20:53;;;;;;;1999.90;999.90;;;9.00;99.90;;;;;;5066932;28;20678;-79
2023/12/11 03:23:19;;;;;;;1999.90;999.90;;;9.10;99.90;;;;;;5067060;28;20025;-80
2023/12/11 03:25:44;;;;;;;1999.90;999.90;;;9.00;99.90;;;;;;5069867;28;20695;-81
2023/12/11 03:28:10;;;;;;;1999.90;999.90;;;8.90;99.90;;;;;;5049994;28;20036;-82
2023/12/11 03:30:36;;;;;;;1999.90;999.90;;;8.90;99.90;;;;;;5069472;28;20043;-77
2023/12/11 03:33:05;;;;;;;1999.90;999.90;;;9.00;99.90;;;;;;5065912;28;20037;-81
2023/12/11 03:35:31;;;;;;;1999.90;999.90;;;9.00;99.90;;;;;;5070357;28;20125;-79
2023/12/11 03:37:57;;;;;;;1999.90;999.90;;;9.00;99.90;;;;;;5067887;28;20033;-79
2023/12/11 03:40:22;;;;;;;1999.90;999.90;;;9.00;99.90;;;;;;5066933;28;20332;-80
2023/12/11 03:42:48;;;;;;;1999.90;999.90;;;8.90;99.90;;;;;;5052134;28;20033;-80
2023/12/11 03:45:14;;;;;;;1999.90;999.90;;;8.80;99.90;;;;;;5066997;28;20426;-81
2023/12/11 03:47:39;;;;;;;1999.90;999.90;;;8.80;99.90;;;;;;5068852;28;20043;-79
2023/12/11 03:50:06;;;;;;;1999.90;999.90;;;8.80;99.90;;;;;;5063772;28;20040;-80
2023/12/11 03:52:32;;;;;;;1999.90;999.90;;;8.80;99.90;;;;;;5067874;28;20117;-82
2023/12/11 03:54:58;;;;;;;1999.90;999.90;;;8.70;99.90;;;;;;5101075;27;20076;-82
2023/12/11 03:57:23;;;;;;;1999.90;999.90;;;8.60;99.90;;;;;;5068280;28;20025;-81
2023/12/11 03:59:49;;;;;;;1999.90;999.90;;;8.60;99.90;;;;;;5065938;28;20032;-79
2023/12/11 04:02:14;;;;;;;1999.90;999.90;;;8.60;99.90;;;;;;5069816;28;20037;-80
2023/12/11 04:04:41;;;;;;;1999.90;999.90;;;8.50;99.90;;;;;;5069215;28;20052;-81
2023/12/11 04:07:08;;;;;;;1999.90;999.90;;;8.60;99.90;;;;;;5066379;28;20039;-82
2023/12/11 04:09:34;;;;;;;1999.90;999.90;;;8.60;99.90;;;;;;5063788;28;20048;-82
2023/12/11 04:12:00;;;;;;;1999.90;999.90;;;8.50;99.90;;;;;;5066678;28;20414;-79
2023/12/11 04:14:26;;;;;;;1999.90;999.90;;;8.40;99.90;;;;;;5065996;28;20020;-82
2023/12/11 04:16:52;;;;;;;1999.90;999.90;;;8.40;99.90;;;;;;5065816;28;20029;-81
2023/12/11 04:19:19;;;;;;;1999.90;999.90;;;8.40;99.90;;;;;;5064973;28;20033;-79
2023/12/11 04:21:45;;;;;;;1999.90;999.90;;;8.40;99.90;;;;;;5065846;28;20430;-79
2023/12/11 04:24:11;;;;;;;1999.90;999.90;;;8.30;99.90;;;;;;5069637;28;20024;-81
2023/12/11 04:26:36;;;;;;;1999.90;999.90;;;8.40;99.90;;;;;;5049976;28;20037;-81
2023/12/11 04:29:02;;;;;;;1999.90;999.90;;;8.30;99.90;;;;;;5066692;28;20040;-83
2023/12/11 04:31:28;;;;;;;1999.90;999.90;;;8.20;99.90;;;;;;5068794;28;20106;-82
2023/12/11 04:33:53;;;;;;;1999.90;999.90;;;8.20;99.90;;;;;;5064682;28;20438;-81
2023/12/11 04:36:19;;;;;;;1999.90;999.90;;;8.40;99.90;;;;;;5067533;28;20086;-82
2023/12/11 04:38:45;;;;;;;1999.90;999.90;;;8.40;99.90;;;;;;5066222;28;20110;-84
2023/12/11 04:41:10;;;;;;;1999.90;999.90;;;8.60;99.90;;;;;;5069293;28;20032;-83
2023/12/11 04:43:36;;;;;;;1999.90;999.90;;;8.60;99.90;;;;;;5048089;28;20039;-83
2023/12/11 04:46:02;;;;;;;1999.90;999.90;;;8.70;99.90;;;;;;5072882;28;20047;-84
2023/12/11 04:48:28;;;;;;;1999.90;999.90;;;8.90;99.90;;;;;;5071143;28;20025;-82
2023/12/11 04:50:53;;;;;;;1999.90;999.90;;;8.90;99.90;;;;;;5055057;28;20025;-83
2023/12/11 04:53:19;;;;;;;1999.90;999.90;;;8.90;99.90;;;;;;5071973;28;20115;-80
2023/12/11 04:55:45;;;;;;;1999.90;999.90;;;8.90;99.90;;;;;;5071190;28;20039;-82
2023/12/11 04:58:11;;;;;;;1999.90;999.90;;;8.90;99.90;;;;;;5074106;28;20028;-83
2023/12/11 05:00:36;;;;;;;1999.90;999.90;;;8.90;99.90;;;;;;5054643;28;20031;-82
2023/12/11 05:03:02;;;;;;;1999.90;999.90;;;9.00;99.90;;;;;;5068994;28;20036;-84
2023/12/11 05:05:29;;;;;;;1999.90;999.90;;;8.90;99.90;;;;;;5071008;28;20159;-81
2023/12/11 05:07:56;;;;;;;1999.90;999.90;;;8.90;99.90;;;;;;5052370;28;20036;-83
2023/12/11 05:10:22;;;;;;;1999.90;999.90;;;9.00;99.90;;;;;;5070877;28;20044;-83
2023/12/11 05:12:47;;;;;;;1999.90;999.90;;;8.80;99.90;;;;;;5068787;28;20028;-81
2023/12/11 05:15:13;;;;;;;1999.90;999.90;;;8.90;99.90;;;;;;5075181;28;20036;-81
2023/12/11 05:17:39;;;;;;;1999.90;999.90;;;8.90;99.90;;;;;;5074392;28;20106;-80
2023/12/11 05:20:05;;;;;;;1999.90;999.90;;;8.90;99.90;;;;;;5071089;28;20029;-81
2023/12/11 05:22:31;;;;;;;1999.90;999.90;;;8.80;99.90;;;;;;5069183;28;20236;-79
2023/12/11 05:24:57;;;;;;;1999.90;999.90;;;8.90;99.90;;;;;;5071110;28;20131;-79
2023/12/11 05:27:22;;;;;;;1999.90;999.90;;;8.80;99.90;;;;;;5070117;28;20037;-78
2023/12/11 05:29:48;;;;;;;1999.90;999.90;;;8.80;99.90;;;;;;5071437;28;20040;-81
2023/12/11 05:32:14;;;;;;;1999.90;999.90;;;8.80;99.90;;;;;;5054472;28;20032;-81
2023/12/11 05:34:40;;;;;;;1999.90;999.90;;;8.90;99.90;;;;;;5070223;28;20130;-81
2023/12/11 05:37:07;;;;;;;1999.90;999.90;;;8.90;99.90;;;;;;5072733;28;20099;-83
2023/12/11 05:39:32;;;;;;;1999.90;999.90;;;8.90;99.90;;;;;;5071631;28;20033;-82
2023/12/11 05:41:58;;;;;;;1999.90;999.90;;;8.80;99.90;;;;;;5076194;28;20716;-81
2023/12/11 05:44:24;;;;;;;1999.90;999.90;;;8.90;99.90;;;;;;5069119;28;20098;-83
2023/12/11 05:46:50;;;;;;;1999.90;999.90;;;9.00;99.90;;;;;;5070245;28;20039;-81
2023/12/11 05:49:17;;;;;;;1999.90;999.90;;;9.00;99.90;;;;;;5071991;28;20032;-81
2023/12/11 05:51:43;;;;;;;1999.90;999.90;;;8.80;99.90;;;;;;5066295;28;20041;-83
2023/12/11 05:54:09;;;;;;;1999.90;999.90;;;8.80;99.90;;;;;;5070811;28;20039;-83
2023/12/11 05:56:35;;;;;;;1999.90;999.90;;;8.90;99.90;;;;;;5069657;28;20067;-83
2023/12/11 05:59:04;;;;;;;1999.90;999.90;;;8.80;99.90;;;;;;5057690;28;20110;-85
2023/12/11 06:01:30;;;;;;;1999.90;999.90;;;8.90;99.90;;;;;;5068082;28;20064;-83
2023/12/11 06:03:55;;;;;;;1999.90;999.90;;;8.80;99.90;;;;;;5053902;28;20113;-84
2023/12/11 06:06:21;;;;;;;1999.90;999.90;;;8.90;99.90;;;;;;5067161;28;20044;-82
2023/12/11 06:08:47;;;;;;;1999.90;999.90;;;8.90;99.90;;;;;;5067798;28;20036;-84
2023/12/11 06:11:14;;;;;;;1999.90;999.90;;;8.90;99.90;;;;;;5066881;28;20034;-82
2023/12/11 06:13:40;;;;;;;1999.90;999.90;;;9.00;99.90;;;;;;5035676;28;20028;-83
2023/12/11 06:16:06;;;;;;;1999.90;999.90;;;8.90;99.90;;;;;;5071120;28;20498;-82
2023/12/11 06:18:31;;;;;;;1999.90;999.90;;;8.80;99.90;;;;;;5065197;28;20040;-84
2023/12/11 06:21:00;;;;;;;1999.90;999.90;;;8.80;99.90;;;;;;5067737;28;20037;-84
2023/12/11 06:23:25;;;;;;;1999.90;999.90;;;9.00;99.90;;;;;;5068105;28;20036;-83
2023/12/11 06:25:52;;;;;;;1999.90;999.90;;;8.90;99.90;;;;;;5047980;28;20029;-85
2023/12/11 06:28:17;;;;;;;1999.90;999.90;;;9.00;99.90;;;;;;5070602;28;20032;-77
2023/12/11 06:30:43;;;;;;;1999.90;999.90;;;9.00;99.90;;;;;;5066379;28;20536;-76
2023/12/11 06:33:12;;;;;;;1999.90;999.90;;;9.00;99.90;;;;;;5067878;28;20039;-74
2023/12/11 06:35:37;;;;;;;1999.90;999.90;;;9.20;99.90;;;;;;5066426;28;20032;-74
2023/12/11 06:38:03;;;;;;;1999.90;999.90;;;9.20;99.90;;;;;;5066964;28;20077;-75
2023/12/11 06:40:29;;;;;;;1999.90;999.90;;;9.20;99.90;;;;;;5068355;28;20033;-73
2023/12/11 06:42:55;;;;;;;1999.90;999.90;;;9.30;99.90;;;;;;5067642;28;20407;-72
2023/12/11 06:45:20;;;;;;;1079.57;516.65;;;9.30;99.90;;;;;;5071066;28;20040;-73
2023/12/11 06:47:46;;;;;;;1999.90;999.90;;;9.40;99.90;;;;;;5064850;28;20032;-72
2023/12/11 06:50:12;;;;;;;1999.90;999.90;;;9.60;99.90;;;;;;5070800;28;20561;-74
2023/12/11 06:52:38;;;;;;;1999.90;999.90;;;9.70;99.90;;;;;;5069167;28;20059;-74
2023/12/11 06:55:05;;;;;;;1999.90;999.90;;;9.80;99.90;;;;;;5071451;28;20032;-73
2023/12/11 06:57:30;;;;;;;1999.90;999.90;;;9.80;99.90;;;;;;5071888;28;20427;-73
2023/12/11 06:59:56;;;;;;;1999.90;999.90;;;9.90;99.90;;;;;;5053662;28;20110;-73
2023/12/11 07:02:22;;;;;;;1999.90;999.90;;;9.90;99.90;;;;;;5068743;28;20028;-73
2023/12/11 07:04:47;;;;;;;1999.90;999.90;;;9.90;99.90;;;;;;5068424;28;20552;-74
2023/12/11 07:07:15;;;;;;;1999.90;999.90;;;9.80;99.90;;;;;;5073361;28;20116;-73
2023/12/11 07:09:46;;;;;;;1999.90;999.90;;;9.70;99.90;;;;;;5067796;28;21314;-75
2023/12/11 07:12:11;;;;;;;1999.90;999.90;;;9.90;99.90;;;;;;5071333;28;20081;-77
2023/12/11 07:14:37;;;;;;;1999.90;999.90;;;9.80;99.90;;;;;;5068297;28;20028;-76
2023/12/11 07:17:03;;;;;;;1999.90;999.90;;;9.80;99.90;;;;;;5073833;28;20859;-77
2023/12/11 07:19:29;;;;;;;1999.90;999.90;;;9.80;99.90;;;;;;5067764;28;20033;-77
2023/12/11 07:21:54;;;;;;;1999.90;999.90;;;9.90;99.90;;;;;;5067785;28;20036;-77
2023/12/11 07:24:20;;;;;;;1999.90;999.90;;;9.90;99.90;;;;;;5063946;28;20032;-76
2023/12/11 07:26:45;;;;;;;1999.90;999.90;;;9.90;99.90;;;;;;5067556;28;20043;-77
2023/12/11 07:29:11;;;;;;;1999.90;999.90;;;9.90;99.90;;;;;;5066672;28;20032;-77
2023/12/11 07:31:39;;;;;;;1999.90;999.90;;;10.00;99.90;;;;;;5066449;28;20028;-77
2023/12/11 07:34:04;;;;;;;1999.90;999.90;;;10.10;99.90;;;;;;5062690;28;20029;-77
2023/12/11 07:36:30;;;;;;;1999.90;999.90;;;10.00;99.90;;;;;;5066170;28;20029;-77
2023/12/11 07:38:56;;;;;;;1999.90;999.90;;;10.10;99.90;;;;;;5070110;28;20411;-77
2023/12/11 07:41:23;;;;;;;1999.90;999.90;;;10.10;99.90;;;;;;5067353;28;20025;-77
2023/12/11 07:43:49;;;;;;;1999.90;999.90;;;10.20;99.90;;;;;;5067619;28;20049;-78
2023/12/11 07:46:18;;;;;;;1999.90;999.90;;;10.20;99.90;;;;;;5069742;28;20024;-78
2023/12/11 07:48:44;;;;;;;1999.90;999.90;;;10.20;99.90;;;;;;5069568;28;20028;-77
2023/12/11 07:51:17;;;;;;;1999.90;999.90;;;10.10;99.90;;;;;;5070132;28;20020;-78
2023/12/11 07:53:46;;;;;;;1999.90;999.90;;;10.10;99.90;;;;;;5070064;28;20179;-77
2023/12/11 07:56:23;;;;;;;1999.90;999.90;;;10.10;99.90;;;;;;5068930;28;20029;-77
2023/12/11 07:58:49;;;;;;;1999.90;999.90;;;10.10;99.90;;;;;;5072546;28;20024;-76
2023/12/11 08:01:15;;;;;;;1999.90;999.90;;;10.10;99.90;;;;;;5069046;28;20036;-77
2023/12/11 08:03:41;;;;;;;1999.90;999.90;;;10.10;99.90;;;;;;5071144;28;20028;-77
2023/12/11 08:06:08;;;;;;;1999.90;999.90;;;10.10;99.90;;;;;;5069117;28;20063;-79
2023/12/11 08:08:40;;;;;;;1999.90;999.90;;;10.10;99.90;;;;;;5068365;28;20037;-77
2023/12/11 08:11:28;;;;;;;1999.90;999.90;;;10.00;99.90;;;;;;5071240;28;20033;-77
2023/12/11 08:13:54;;;;;;;1999.90;999.90;;;10.00;99.90;;;;;;5066114;28;20036;-77
2023/12/11 08:16:21;;;;;;;1999.90;999.90;;;10.00;99.90;;;;;;5069796;28;20035;-79
2023/12/11 08:18:48;;;;;;;1999.90;999.90;;;10.00;99.90;;;;;;5069624;28;20425;-78
2023/12/11 08:21:14;;;;;;;1999.90;999.90;;;10.00;99.90;;;;;;5079403;28;20530;-77
2023/12/11 08:23:40;;;;;;;1999.90;999.90;;;9.90;99.90;;;;;;5074158;28;20039;-78
2023/12/11 08:26:07;;;;;;;1999.90;999.90;;;10.00;99.90;;;;;;5076902;28;20491;-76
2023/12/11 08:28:33;;;;;;;1999.90;999.90;;;9.90;99.90;;;;;;5073880;28;20032;-77
2023/12/11 08:30:59;;;;;;;1999.90;999.90;;;9.80;99.90;;;;;;5074629;28;20552;-76
2023/12/11 08:33:24;;;;;;;1999.90;999.90;;;9.70;99.90;;;;;;5076818;28;20319;-73
2023/12/11 08:35:50;;;;;;;1999.90;999.90;;;9.70;99.90;;;;;;5084146;28;20044;-75
2023/12/11 08:38:21;;;;;;;1999.90;999.90;;;9.70;99.90;;;;;;5075902;28;20039;-75
2023/12/11 08:40:47;;;;;;;1999.90;999.90;;;9.50;99.90;;;;;;5073674;28;20024;-74
2023/12/11 08:43:13;;;;;;;1999.90;999.90;;;9.60;99.90;;;;;;5075491;28;20513;-74
2023/12/11 08:45:38;;;;;;;1999.90;999.90;;;9.50;99.90;;;;;;5071906;28;20490;-74
2023/12/11 08:48:04;;;;;;;1999.90;999.90;;;9.50;99.90;;;;;;5078268;28;20067;-74
2023/12/11 08:50:30;;;;;;;1999.90;999.90;;;9.40;99.90;;;;;;5074006;28;20036;-74
2023/12/11 08:52:56;;;;;;;1999.90;999.90;;;9.40;99.90;;;;;;5072534;28;20094;-73
2023/12/11 08:55:22;;;;;;;1999.90;999.90;;;9.30;99.90;;;;;;5072461;28;20732;-74
2023/12/11 08:57:47;;;;;;;1999.90;999.90;;;9.20;99.90;;;;;;5074142;28;20100;-74
2023/12/11 09:00:14;;;;;;;1999.90;999.90;;;9.20;99.90;;;;;;5073932;28;20459;-81
2023/12/11 09:02:39;;;;;;;1999.90;999.90;;;9.00;99.90;;;;;;5085438;28;20503;-80
2023/12/11 09:05:05;;;;;;;1999.90;999.90;;;8.90;99.90;;;;;;5072421;28;20032;-83
2023/12/11 09:07:31;;;;;;;1999.90;999.90;;;8.90;99.90;;;;;;5074144;28;20418;-83
2023/12/11 09:09:57;;;;;;;1999.90;999.90;;;8.90;99.90;;;;;;5073667;28;20119;-81
2023/12/11 09:12:23;;;;;;;1999.90;999.90;;;8.80;99.90;;;;;;5072969;28;20032;-82
2023/12/11 09:14:49;;;;;;;1999.90;999.90;;;8.70;99.90;;;;;;5075286;28;20041;-80
2023/12/11 09:17:15;;;;;;;1999.90;999.90;;;8.70;99.90;;;;;;5075141;28;20036;-82
2023/12/11 09:19:40;;;;;;;1999.90;999.90;;;8.70;99.90;;;;;;5074877;28;20043;-83
2023/12/11 09:22:06;;;;;;;1999.90;999.90;;;8.70;99.90;;;;;;5074108;28;20145;-81
2023/12/11 09:24:32;;;;;;;1999.90;999.90;;;8.80;99.90;;;;;;5072914;28;20042;-81
2023/12/11 09:26:57;;;;;;;1999.90;999.90;;;8.80;99.90;;;;;;5069845;28;20052;-79
2023/12/11 09:29:23;;;;;;;1999.90;999.90;;;8.80;99.90;;;;;;5071026;28;20041;-81
2023/12/11 09:31:49;;;;;;;1999.90;999.90;;;8.70;99.90;;;;;;5070680;28;20029;-82
2023/12/11 09:34:16;;;;;;;1999.90;999.90;;;8.70;99.90;;;;;;5069855;28;20039;-82
2023/12/11 09:36:41;;;;;;;1999.90;999.90;;;8.80;99.90;;;;;;5051166;28;20024;-79
2023/12/11 09:39:08;;;;;;;1999.90;999.90;;;8.80;99.90;;;;;;5073319;28;20035;-82
2023/12/11 09:41:34;;;;;;;1999.90;999.90;;;8.70;99.90;;;;;;5069952;28;20503;-81
2023/12/11 09:44:01;;;;;;;1999.90;999.90;;;8.80;99.90;;;;;;5052120;28;20043;-84
2023/12/11 09:46:29;;;;;;;1999.90;999.90;;;8.80;99.90;;;;;;5070466;28;20037;-80
2023/12/11 09:48:55;;;;;;;1999.90;999.90;;;8.70;99.90;;;;;;5073363;28;20107;-84
2023/12/11 09:51:21;;;;;;;1999.90;999.90;;;8.90;99.90;;;;;;5070321;28;20047;-82
2023/12/11 09:53:48;;;;;;;1999.90;999.90;;;8.70;99.90;;;;;;5052508;28;20500;-80
2023/12/11 09:56:15;;;;;;;1999.90;999.90;;;8.70;99.90;;;;;;5072490;28;20105;-82
2023/12/11 09:58:43;;;;;;;1999.90;999.90;;;8.80;99.90;;;;;;5070907;28;20040;-83
2023/12/11 10:01:13;;;;;;;1999.90;999.90;;;8.80;99.90;;;;;;5074130;28;20025;-79
2023/12/11 10:03:39;;;;;;;1999.90;999.90;;;8.70;99.90;;;;;;5066542;28;20029;-79
2023/12/11 10:06:05;;;;;;;1999.90;999.90;;;8.80;99.90;;;;;;5070521;28;20048;-76
2023/12/11 10:08:41;;;;;;;1999.90;999.90;;;8.80;99.90;;;;;;5065019;28;20028;-81
2023/12/11 10:11:11;;;;;;;1999.90;999.90;;;8.80;99.90;;;;;;5069842;28;20044;-78
2023/12/11 10:13:37;;;;;;;;;;;8.80;99.90;;;;;;5068402;28;20132;-81
2023/12/11 10:16:05;;;;;;;1999.90;999.90;;;8.80;99.90;;;;;;5067117;28;20322;-82
2023/12/11 10:18:31;;;;;;;1999.90;999.90;;;8.80;99.90;;;;;;5065129;28;20082;-78
2023/12/11 10:20:58;;;;;;;1999.90;999.90;;;8.80;99.90;;;;;;5067085;28;20028;-79
2023/12/11 10:23:24;;;;;;;1999.90;999.90;;;8.90;99.90;;;;;;5069030;28;20131;-80
2023/12/11 10:26:04;;;;;;;1999.90;999.90;;;8.90;99.90;;;;;;5072779;28;20112;-82
2023/12/11 10:28:33;;;;;;;1999.90;999.90;;;8.90;99.90;;;;;;5071126;28;20033;-78
2023/12/11 10:31:01;;;;;;;1999.90;999.90;;;8.80;99.90;;;;;;5069938;28;20115;-78
2023/12/11 10:33:32;;;;;;;1999.90;999.90;;;9.00;99.90;;;;;;5063359;28;20040;-81
2023/12/11 10:36:13;;;;;;;;;;;8.90;99.90;;;;;;5068069;28;20021;-80
2023/12/11 10:38:40;;;;;;;1999.90;999.90;;;8.90;99.90;;;;;;5103278;27;19916;-79
2023/12/11 10:41:06;;;;;;;1999.90;999.90;;;8.90;99.90;;;;;;5069587;28;20064;-81
2023/12/11 10:43:42;;;;;;;1999.90;999.90;;;8.90;99.90;;;;;;5069823;28;20029;-81
2023/12/11 10:46:09;;;;;;;1999.90;999.90;;;8.90;99.90;;;;;;5068832;28;20511;-84
2023/12/11 10:48:38;;;;;;;1999.90;999.90;;;9.10;99.90;;;;;;5071517;28;20052;-81
2023/12/11 10:51:05;;;;;;;1999.90;999.90;;;9.10;98.80;;;;;;5068808;28;20037;-84
2023/12/11 10:53:35;;;;;;;1999.90;999.90;;;9.20;96.80;;;;;;5067949;28;20040;-81
2023/12/11 10:56:03;;;;;;;1999.90;999.90;;;9.30;96.20;;;;;;5065460;28;20418;-82
2023/12/11 10:58:29;;;;;;;1999.90;999.90;;;9.30;95.70;;;;;;5069814;28;20043;-81
2023/12/11 11:00:59;;;;;;;1999.90;999.90;;;9.30;94.50;;;;;;5066581;28;20037;-82
2023/12/11 11:03:26;;;;;;;1999.90;999.90;;;9.30;94.10;;;;;;5064565;28;20116;-80
2023/12/11 11:05:57;;;;;;;1999.90;999.90;;;9.40;93.30;;;;;;5064138;28;20365;-83
2023/12/11 11:08:28;;;;;;;;;;;9.50;92.80;;;;;;5065574;28;20028;-77
2023/12/11 11:11:37;;;;;;;1999.90;999.90;;;9.50;92.40;;;;;;5066126;28;19917;-76
2023/12/11 11:14:28;;;;;;;1999.90;999.90;;;9.50;92.70;;;;;;5067558;28;20039;-76
2023/12/11 11:16:54;;;;;;;1999.90;999.90;;;9.50;92.60;;;;;;5069287;28;20040;-76
2023/12/11 11:19:21;;;;;;;1999.90;999.90;;;9.60;92.50;;;;;;5070423;28;20024;-76
2023/12/11 11:22:06;;;;;;;1999.90;999.90;;;9.50;92.40;;;;;;5069223;28;20033;-76
2023/12/11 11:24:37;;;;;;;1999.90;999.90;;;9.40;92.40;;;;;;5069205;28;20024;-77
2023/12/11 11:27:04;;;;;;;1999.90;999.90;;;9.30;92.50;;;;;;5100894;27;20178;-77
2023/12/11 11:29:45;;;;;;;1999.90;999.90;;;9.30;92.40;;;;;;5069601;28;20040;-86
2023/12/11 11:32:14;;;;;;;1999.90;999.90;;;9.30;92.50;;;;;;5070074;28;20020;-86
2023/12/11 11:34:39;;;;;;;1999.90;999.90;;;9.20;92.60;;;;;;5053840;28;20033;-87
2023/12/11 11:37:05;;;;;;;1999.90;999.90;;;9.10;92.70;;;;;;5071033;28;20462;-86
2023/12/11 11:39:59;;;;;;;1999.90;999.90;;;9.10;93.40;;;;;;5069615;28;20028;-87
2023/12/11 11:42:25;;;;;;;1999.90;999.90;;;9.00;93.90;;;;;;5072842;28;20119;-86
2023/12/11 11:44:59;;;;;;;1999.90;999.90;;;8.90;94.40;;;;;;5050696;28;20047;-87
2023/12/11 11:47:27;;;;;;;1999.90;999.90;;;8.90;94.80;;;;;;5070796;28;20034;-87
2023/12/11 11:49:53;;;;;;;1999.90;999.90;;;9.00;95.00;;;;;;5067467;28;20063;-85
2023/12/11 11:52:27;;;;;;;1999.90;999.90;;;9.00;94.70;;;;;;5071431;28;20058;-86
2023/12/11 11:55:03;;;;;;;1999.90;999.90;;;9.00;94.60;;;;;;5069502;28;20494;-84
2023/12/11 11:57:29;;;;;;;1999.90;999.90;;;8.90;94.70;;;;;;5063153;28;20032;-85
2023/12/11 11:59:57;;;;;;;1999.90;999.90;;;8.90;94.90;;;;;;5075080;28;20444;-84
2023/12/11 12:02:23;;;;;;;1999.90;999.90;;;8.90;94.10;;;;;;5069348;28;20719;-81
2023/12/11 12:04:49;;;;;;;1999.90;999.90;;;8.90;94.20;;;;;;5069268;28;20035;-82
2023/12/11 12:07:15;;;;;;;1999.90;999.90;;;9.00;93.60;;;;;;5068075;28;20406;-79